Time;durP1;ratioP1;P1;durP2;ratioP2;P2;SDS_P1;SDS_P2;PMS_P1;PMS_P2;Temp;Humidity;BMP_temperature;BMP_pressure;BME280_temperature;BME280_humidity;BME280_pressure;Samples;Min_cycle;Max_cycle;Signal;HPM_P1;HPM_P2
2022/01/17 00:01:37;;;;;;;48.83;15.37;;;4.60;99.90;;;;;;5045788;28;20057;-82
2022/01/17 00:04:03;;;;;;;32.57;12.70;;;4.60;99.90;;;;;;5075485;28;20029;-84
2022/01/17 00:06:29;;;;;;;44.77;14.43;;;4.60;99.90;;;;;;5047417;28;20045;-83
2022/01/17 00:08:55;;;;;;;38.03;14.00;;;4.50;99.90;;;;;;5041967;28;20075;-85
2022/01/17 00:11:21;;;;;;;41.23;13.67;;;4.50;99.90;;;;;;5073471;28;20018;-84
2022/01/17 00:13:48;;;;;;;39.77;13.07;;;4.60;99.90;;;;;;5074195;28;20064;-83
2022/01/17 00:16:20;;;;;;;38.00;13.43;;;4.50;99.90;;;;;;5040544;28;20209;-83
2022/01/17 00:21:14;;;;;;;42.70;13.13;;;4.50;99.90;;;;;;5041904;28;20049;-85
2022/01/17 00:23:40;;;;;;;41.17;13.63;;;4.50;99.90;;;;;;5038860;28;20021;-84
2022/01/17 00:26:06;;;;;;;30.90;12.90;;;4.40;99.90;;;;;;5041279;28;20022;-84
2022/01/17 00:28:34;;;;;;;49.43;14.30;;;4.40;99.90;;;;;;5071463;28;20124;-83
2022/01/17 00:31:04;;;;;;;41.27;13.23;;;4.50;99.90;;;;;;5071760;28;20037;-82
2022/01/17 00:33:30;;;;;;;39.23;14.70;;;4.40;99.90;;;;;;5047778;28;20032;-82
2022/01/17 00:35:56;;;;;;;35.97;12.60;;;4.50;99.90;;;;;;5046751;28;20097;-82
2022/01/17 00:38:22;;;;;;;38.47;12.37;;;4.40;99.90;;;;;;5039340;28;20073;-85
2022/01/17 00:40:48;;;;;;;43.20;14.97;;;4.40;99.90;;;;;;5038721;28;20033;-83
2022/01/17 00:43:14;;;;;;;45.50;13.40;;;4.40;99.90;;;;;;5071012;28;20025;-84
2022/01/17 00:45:43;;;;;;;34.97;12.97;;;4.40;99.90;;;;;;5038524;28;20470;-83
2022/01/17 00:48:09;;;;;;;39.17;13.50;;;4.40;99.90;;;;;;5037717;28;20033;-84
2022/01/17 00:50:37;;;;;;;44.73;12.93;;;4.40;99.90;;;;;;5048217;28;20055;-85
2022/01/17 00:53:04;;;;;;;42.93;12.87;;;4.40;99.90;;;;;;5073938;28;20059;-82
2022/01/17 00:55:36;;;;;;;44.60;14.70;;;4.50;99.90;;;;;;5037371;28;20051;-83
2022/01/17 00:58:02;;;;;;;44.70;13.03;;;4.50;99.90;;;;;;5041775;28;20114;-83
2022/01/17 01:00:29;;;;;;;28.27;10.60;;;4.60;99.90;;;;;;5039597;28;20026;-83
2022/01/17 01:02:55;;;;;;;44.97;13.77;;;4.50;99.90;;;;;;5045837;28;20033;-84
2022/01/17 01:05:21;;;;;;;42.27;14.77;;;4.50;99.90;;;;;;5040250;28;20026;-85
2022/01/17 01:07:47;;;;;;;40.53;14.77;;;4.50;99.90;;;;;;5036998;28;20025;-83
2022/01/17 01:10:14;;;;;;;39.07;13.80;;;4.50;99.90;;;;;;5070592;28;20056;-85
2022/01/17 01:12:43;;;;;;;46.60;16.17;;;4.60;99.90;;;;;;5069352;28;20060;-84
2022/01/17 01:15:14;;;;;;;46.70;14.60;;;4.50;99.90;;;;;;5038226;28;20033;-84
2022/01/17 01:17:51;;;;;;;44.00;16.87;;;4.50;99.90;;;;;;5048460;28;20047;-83
2022/01/17 01:20:57;;;;;;;51.27;16.33;;;4.50;99.90;;;;;;5036584;28;20484;-82
2022/01/17 01:28:45;;;;;;;49.27;14.53;;;4.60;99.90;;;;;;5035429;28;20052;-84
2022/01/17 01:31:16;;;;;;;46.07;14.77;;;4.60;99.90;;;;;;5035312;28;20097;-84
2022/01/17 01:33:49;;;;;;;50.37;14.17;;;4.60;99.90;;;;;;5040079;28;20036;-84
2022/01/17 01:36:20;;;;;;;43.17;16.13;;;4.60;99.90;;;;;;5036860;28;20060;-83
2022/01/17 01:38:48;;;;;;;41.10;13.67;;;4.70;99.90;;;;;;5040922;28;20076;-83
2022/01/17 01:41:14;;;;;;;55.67;16.17;;;4.70;99.90;;;;;;5043206;28;20484;-85
2022/01/17 01:43:40;;;;;;;36.07;15.03;;;4.80;99.90;;;;;;5040904;28;20034;-84
2022/01/17 01:46:06;;;;;;;46.47;14.90;;;4.70;99.90;;;;;;5034893;28;20036;-84
2022/01/17 01:48:34;;;;;;;55.33;15.43;;;4.80;99.90;;;;;;5053554;28;20121;-84
2022/01/17 01:51:01;;;;;;;50.63;15.77;;;4.70;99.90;;;;;;5033962;28;20033;-83
2022/01/17 01:53:27;;;;;;;48.20;16.87;;;4.80;99.90;;;;;;5036948;28;20029;-84
2022/01/17 01:55:55;;;;;;;40.30;16.03;;;4.80;99.90;;;;;;5042491;28;20136;-85
2022/01/17 01:58:23;;;;;;;47.73;16.53;;;4.80;99.90;;;;;;5038038;28;20053;-85
2022/01/17 02:00:49;;;;;;;48.30;16.73;;;4.80;99.90;;;;;;5048610;28;20053;-81
2022/01/17 02:03:15;;;;;;;35.97;14.17;;;4.80;99.90;;;;;;5033869;28;20041;-84
2022/01/17 02:05:42;;;;;;;50.93;16.40;;;4.80;99.90;;;;;;5040815;28;20037;-84
2022/01/17 02:08:15;;;;;;;40.90;14.33;;;4.80;99.90;;;;;;5031952;28;20030;-85
2022/01/17 02:10:41;;;;;;;44.30;15.90;;;4.90;99.90;;;;;;5035489;28;20029;-84
2022/01/17 02:13:08;;;;;;;52.20;15.13;;;4.90;99.90;;;;;;5034208;28;20029;-83
2022/01/17 02:15:38;;;;;;;49.90;14.93;;;4.90;99.90;;;;;;5033364;28;20025;-84
2022/01/17 02:18:07;;;;;;;49.70;15.30;;;5.00;99.90;;;;;;5035482;28;20037;-84
2022/01/17 02:20:45;;;;;;;51.10;15.30;;;5.00;99.90;;;;;;5045774;28;20056;-83
2022/01/17 02:23:13;;;;;;;52.90;16.43;;;5.00;99.90;;;;;;5073816;28;20032;-83
2022/01/17 02:25:39;;;;;;;48.77;16.63;;;5.00;99.90;;;;;;5034629;28;21293;-84
2022/01/17 02:28:05;;;;;;;49.27;15.40;;;5.00;99.90;;;;;;5034983;28;20034;-83
2022/01/17 02:30:32;;;;;;;51.17;15.57;;;4.90;99.90;;;;;;5037310;28;20036;-84
2022/01/17 02:33:02;;;;;;;57.13;15.80;;;4.90;99.90;;;;;;5045408;28;21257;-84
2022/01/17 02:35:28;;;;;;;43.60;15.23;;;5.00;99.90;;;;;;5037066;28;20036;-84
2022/01/17 02:37:55;;;;;;;35.10;14.63;;;5.00;99.90;;;;;;5033786;28;20022;-85
2022/01/17 02:40:21;;;;;;;44.40;15.57;;;5.10;99.90;;;;;;5037986;28;20034;-82
2022/01/17 02:43:06;;;;;;;53.77;15.60;;;5.10;99.90;;;;;;5035825;28;20082;-84
2022/01/17 02:45:36;;;;;;;44.63;15.77;;;5.00;99.90;;;;;;5039833;28;20044;-83
2022/01/17 02:48:05;;;;;;;34.83;15.27;;;5.00;99.90;;;;;;5041419;28;20089;-85
2022/01/17 02:50:31;;;;;;;44.63;15.93;;;5.10;99.90;;;;;;5056005;28;20369;-84
2022/01/17 02:53:02;;;;;;;42.67;16.63;;;5.00;99.90;;;;;;5041316;28;20032;-84
2022/01/17 02:55:29;;;;;;;48.43;17.47;;;5.10;99.90;;;;;;5076307;28;20075;-84
2022/01/17 02:57:55;;;;;;;38.50;15.60;;;5.00;99.90;;;;;;5046969;28;20028;-83
2022/01/17 03:00:21;;;;;;;50.97;16.80;;;5.00;99.90;;;;;;5036499;28;20029;-82
2022/01/17 03:02:49;;;;;;;50.23;16.47;;;5.10;99.90;;;;;;5039556;28;20053;-82
2022/01/17 03:05:19;;;;;;;43.57;17.27;;;5.10;99.90;;;;;;5038981;28;20112;-83
2022/01/17 03:07:46;;;;;;;48.57;17.93;;;5.10;99.90;;;;;;5044549;28;20033;-84
2022/01/17 03:13:03;;;;;;;43.47;14.60;;;5.10;99.90;;;;;;5045715;28;21470;-84
2022/01/17 03:15:29;;;;;;;50.87;16.80;;;5.10;99.90;;;;;;5037361;28;20054;-83
2022/01/17 03:17:55;;;;;;;38.87;17.13;;;5.10;99.90;;;;;;5040917;28;20041;-83
2022/01/17 03:20:21;;;;;;;51.43;17.50;;;5.10;99.90;;;;;;5042754;28;20052;-83
2022/01/17 03:22:50;;;;;;;47.20;18.50;;;5.10;99.90;;;;;;5073457;28;20030;-84
2022/01/17 03:25:16;;;;;;;50.80;16.87;;;5.00;99.90;;;;;;5037297;28;20113;-85
2022/01/17 03:27:42;;;;;;;46.70;16.17;;;5.10;99.90;;;;;;5041765;28;20065;-84
2022/01/17 03:30:08;;;;;;;47.23;17.50;;;5.10;99.90;;;;;;5040619;28;20120;-83
2022/01/17 03:32:34;;;;;;;38.53;17.33;;;5.10;99.90;;;;;;5047856;28;20067;-84
2022/01/17 03:35:00;;;;;;;40.07;16.90;;;5.10;99.90;;;;;;5036428;28;20025;-85
2022/01/17 03:37:27;;;;;;;48.33;17.40;;;5.10;99.90;;;;;;5041453;28;20034;-83
2022/01/17 03:39:52;;;;;;;51.07;17.43;;;5.10;99.90;;;;;;5038771;28;20084;-84
2022/01/17 03:42:18;;;;;;;40.37;16.80;;;5.10;99.90;;;;;;5037001;28;20155;-85
2022/01/17 03:44:45;;;;;;;50.30;17.07;;;5.20;99.90;;;;;;5072866;28;20044;-81
2022/01/17 03:47:12;;;;;;;37.50;16.43;;;5.20;99.90;;;;;;5055361;28;20037;-85
2022/01/17 03:49:38;;;;;;;45.03;18.03;;;5.20;99.90;;;;;;5070398;28;20053;-84
2022/01/17 03:52:04;;;;;;;44.20;17.27;;;5.20;99.90;;;;;;5034984;28;20032;-85
2022/01/17 03:54:31;;;;;;;42.37;17.57;;;5.20;99.90;;;;;;5040595;28;20033;-84
2022/01/17 03:56:57;;;;;;;38.57;17.33;;;5.20;99.90;;;;;;5040036;28;20026;-84
2022/01/17 03:59:23;;;;;;;47.63;18.63;;;5.20;99.90;;;;;;5056925;28;20036;-83
2022/01/17 04:01:49;;;;;;;41.03;15.27;;;5.20;99.90;;;;;;5052430;28;20030;-84
2022/01/17 04:04:15;;;;;;;42.70;17.17;;;5.20;99.90;;;;;;5040200;28;20103;-85
2022/01/17 04:06:43;;;;;;;44.97;17.17;;;5.20;99.90;;;;;;5037871;28;20040;-83
2022/01/17 04:09:10;;;;;;;37.73;15.93;;;5.20;99.90;;;;;;5075217;28;20025;-82
2022/01/17 04:11:36;;;;;;;37.20;15.27;;;5.20;99.90;;;;;;5037922;28;20048;-84
2022/01/17 04:14:09;;;;;;;42.50;16.93;;;5.20;99.90;;;;;;5041392;28;20025;-85
2022/01/17 04:16:35;;;;;;;45.07;15.47;;;5.20;99.90;;;;;;5055385;28;20065;-85
2022/01/17 04:19:01;;;;;;;43.87;16.13;;;5.10;99.90;;;;;;5074100;28;20068;-83
2022/01/17 04:21:32;;;;;;;32.47;14.37;;;5.10;99.90;;;;;;5037572;28;20123;-84
2022/01/17 04:23:58;;;;;;;38.73;15.77;;;5.10;99.90;;;;;;5053024;28;20041;-84
2022/01/17 04:26:24;;;;;;;34.73;15.70;;;5.00;99.90;;;;;;5074318;28;20029;-84
2022/01/17 04:28:53;;;;;;;40.47;15.73;;;4.90;99.90;;;;;;5036741;28;20026;-83
2022/01/17 04:31:18;;;;;;;40.47;15.63;;;5.00;99.90;;;;;;5056067;28;20033;-85
2022/01/17 04:33:44;;;;;;;32.67;13.83;;;5.00;99.90;;;;;;5036394;28;20033;-83
2022/01/17 04:36:10;;;;;;;37.03;14.30;;;5.00;99.90;;;;;;5072172;28;20037;-81
2022/01/17 04:38:37;;;;;;;41.43;16.73;;;5.00;99.90;;;;;;5035773;28;20033;-85
2022/01/17 04:41:12;;;;;;;34.97;14.53;;;5.00;99.90;;;;;;5037797;28;20033;-85
2022/01/17 04:46:09;;;;;;;33.70;13.80;;;5.00;99.90;;;;;;5040296;28;20446;-84
2022/01/17 04:48:37;;;;;;;44.07;15.47;;;5.00;99.90;;;;;;5040880;28;20065;-84
2022/01/17 04:51:03;;;;;;;33.40;13.90;;;5.00;99.90;;;;;;5044791;28;20053;-84
2022/01/17 04:53:30;;;;;;;35.57;15.40;;;4.90;99.90;;;;;;5036815;28;20021;-85
2022/01/17 04:56:00;;;;;;;37.07;13.23;;;5.00;99.90;;;;;;5036598;28;20037;-83
2022/01/17 04:58:26;;;;;;;38.33;13.40;;;5.00;99.90;;;;;;5039307;28;20108;-82
2022/01/17 05:00:52;;;;;;;45.10;15.33;;;5.00;99.90;;;;;;5045775;28;20060;-84
2022/01/17 05:03:20;;;;;;;40.40;15.47;;;5.10;99.90;;;;;;5066086;28;20038;-84
2022/01/17 05:05:50;;;;;;;38.17;15.53;;;5.10;99.90;;;;;;5040894;28;20457;-85
2022/01/17 05:08:16;;;;;;;42.73;14.87;;;5.10;99.90;;;;;;5037256;28;20025;-86
2022/01/17 05:10:46;;;;;;;38.07;12.83;;;5.00;99.90;;;;;;5035444;28;20029;-85
2022/01/17 05:13:18;;;;;;;33.93;13.07;;;5.10;99.90;;;;;;5068540;28;20094;-82
2022/01/17 05:15:50;;;;;;;36.87;13.53;;;5.00;99.90;;;;;;5039419;28;20028;-84
2022/01/17 05:19:48;;;;;;;48.50;14.80;;;5.10;99.90;;;;;;5036238;28;20021;-85
2022/01/17 05:21:10;;;;;;;47.63;15.00;;;5.10;99.90;;;;;;5042854;28;20034;-85
2022/01/17 05:23:36;;;;;;;39.20;15.20;;;5.10;99.90;;;;;;5073800;28;20022;-86
2022/01/17 05:26:02;;;;;;;41.27;16.13;;;5.10;99.90;;;;;;5070320;28;20036;-85
2022/01/17 05:28:28;;;;;;;37.03;13.50;;;5.10;99.90;;;;;;5038538;28;20026;-84
2022/01/17 05:30:54;;;;;;;32.60;14.03;;;5.10;99.90;;;;;;5040555;28;20458;-85
2022/01/17 05:33:19;;;;;;;32.03;13.27;;;5.10;99.90;;;;;;5046664;28;20035;-85
2022/01/17 05:35:45;;;;;;;38.83;13.60;;;5.20;99.90;;;;;;5036384;28;20076;-84
2022/01/17 05:38:12;;;;;;;32.07;13.33;;;5.10;99.90;;;;;;5040737;28;20065;-85
2022/01/17 05:40:40;;;;;;;37.30;14.17;;;5.20;99.90;;;;;;5053985;28;20026;-84
2022/01/17 05:43:06;;;;;;;30.60;12.37;;;5.10;99.90;;;;;;5055759;28;20053;-83
2022/01/17 05:45:34;;;;;;;28.80;14.27;;;5.10;99.90;;;;;;5072469;28;20022;-84
2022/01/17 05:48:00;;;;;;;32.67;12.43;;;5.10;99.90;;;;;;5036555;28;20033;-85
2022/01/17 05:50:26;;;;;;;30.67;12.10;;;5.10;99.90;;;;;;5035569;28;20039;-84
2022/01/17 05:52:55;;;;;;;34.60;11.70;;;5.10;99.90;;;;;;5036969;28;20171;-83
2022/01/17 05:55:21;;;;;;;26.50;12.37;;;5.10;99.90;;;;;;5039630;28;20044;-85
2022/01/17 05:57:47;;;;;;;33.07;13.43;;;5.20;99.90;;;;;;5055124;28;20053;-83
2022/01/17 06:00:18;;;;;;;29.23;12.07;;;5.10;99.90;;;;;;5042858;28;20038;-83
2022/01/17 06:02:44;;;;;;;26.10;10.63;;;5.10;99.90;;;;;;5047739;28;20036;-83
2022/01/17 06:05:12;;;;;;;31.83;12.07;;;5.10;99.90;;;;;;5070748;28;20053;-85
2022/01/17 06:07:38;;;;;;;25.17;11.70;;;5.20;99.90;;;;;;5054245;28;20092;-83
2022/01/17 06:10:04;;;;;;;29.93;9.67;;;5.30;99.90;;;;;;5070807;28;20036;-85
2022/01/17 06:12:30;;;;;;;28.67;11.73;;;5.30;99.90;;;;;;5053342;28;20025;-84
2022/01/17 06:14:57;;;;;;;26.80;11.53;;;5.30;99.90;;;;;;5057323;28;20073;-84
2022/01/17 06:17:23;;;;;;;22.20;10.67;;;5.30;99.90;;;;;;5057675;28;20131;-84
2022/01/17 06:19:49;;;;;;;27.70;10.40;;;5.30;99.90;;;;;;5038435;28;20034;-84
2022/01/17 06:22:15;;;;;;;28.00;11.83;;;5.30;99.90;;;;;;5048938;28;20044;-84
2022/01/17 06:24:40;;;;;;;25.90;10.13;;;5.40;99.90;;;;;;5077487;28;20068;-85
2022/01/17 06:27:06;;;;;;;22.10;9.37;;;5.40;99.90;;;;;;5056572;28;20633;-84
2022/01/17 06:29:32;;;;;;;29.93;12.27;;;5.40;99.90;;;;;;5043125;28;20037;-82
2022/01/17 06:31:58;;;;;;;26.37;11.30;;;5.30;99.90;;;;;;5044742;28;20034;-85
2022/01/17 06:34:24;;;;;;;34.70;10.43;;;5.40;99.90;;;;;;5075294;28;20094;-82
2022/01/17 06:36:50;;;;;;;23.77;10.80;;;5.50;99.90;;;;;;5081179;28;20035;-85
2022/01/17 06:39:16;;;;;;;22.57;9.67;;;5.50;99.90;;;;;;5044393;28;20029;-85
2022/01/17 06:41:42;;;;;;;25.17;10.80;;;5.50;99.90;;;;;;5041488;28;20018;-84
2022/01/17 06:44:08;;;;;;;17.07;9.03;;;5.50;99.90;;;;;;5043876;28;20037;-85
2022/01/17 06:46:35;;;;;;;19.47;10.13;;;5.50;99.90;;;;;;5047048;28;20041;-82
2022/01/17 06:49:01;;;;;;;19.60;10.10;;;5.50;99.90;;;;;;5041765;28;20033;-82
2022/01/17 06:51:27;;;;;;;22.37;11.37;;;5.50;99.90;;;;;;5042421;28;20033;-84
2022/01/17 06:53:53;;;;;;;27.47;11.13;;;5.50;99.90;;;;;;5070274;28;20030;-85
2022/01/17 06:56:19;;;;;;;21.97;9.93;;;5.50;99.90;;;;;;5043296;28;20025;-84
2022/01/17 06:58:45;;;;;;;21.20;9.33;;;5.50;99.90;;;;;;5051087;28;20030;-85
2022/01/17 07:01:12;;;;;;;26.03;10.53;;;5.50;99.90;;;;;;5043095;28;20037;-84
2022/01/17 07:03:38;;;;;;;23.73;9.43;;;5.60;99.90;;;;;;5074161;28;20052;-84
2022/01/17 07:06:04;;;;;;;24.77;9.93;;;5.60;99.90;;;;;;5051524;28;20026;-84
2022/01/17 07:08:30;;;;;;;19.67;9.40;;;5.50;99.90;;;;;;5044843;28;20028;-84
2022/01/17 07:10:56;;;;;;;20.33;8.60;;;5.60;99.90;;;;;;5042860;28;20149;-84
2022/01/17 07:13:22;;;;;;;22.17;9.93;;;5.70;99.90;;;;;;5051964;28;20458;-84
2022/01/17 07:15:48;;;;;;;18.90;10.43;;;5.60;99.90;;;;;;5043648;28;20032;-86
2022/01/17 07:18:14;;;;;;;19.70;8.67;;;5.60;99.90;;;;;;5043494;28;20030;-84
2022/01/17 07:20:40;;;;;;;23.73;8.83;;;5.60;99.90;;;;;;5057541;28;20055;-84
2022/01/17 07:23:06;;;;;;;25.50;10.13;;;5.70;99.90;;;;;;5056735;28;20093;-81
2022/01/17 07:25:32;;;;;;;24.83;9.83;;;5.70;99.90;;;;;;5074302;28;20044;-85
2022/01/17 07:27:58;;;;;;;22.73;8.23;;;5.70;99.90;;;;;;5042538;28;20292;-84
2022/01/17 07:30:24;;;;;;;25.97;9.17;;;5.80;99.90;;;;;;5048618;28;20176;-85
2022/01/17 07:32:50;;;;;;;18.73;9.00;;;5.70;99.90;;;;;;5042457;28;20037;-84
2022/01/17 07:35:16;;;;;;;17.43;8.20;;;5.70;99.90;;;;;;5038791;28;20029;-82
2022/01/17 07:37:42;;;;;;;19.73;9.57;;;5.70;99.90;;;;;;5036716;28;20032;-84
2022/01/17 07:40:09;;;;;;;20.77;9.37;;;5.70;99.90;;;;;;5040265;28;20037;-83
2022/01/17 07:42:35;;;;;;;20.60;8.50;;;5.70;99.90;;;;;;5051164;28;20041;-83
2022/01/17 07:45:09;;;;;;;15.27;8.03;;;5.70;99.90;;;;;;5038804;28;20034;-85
2022/01/17 07:50:06;;;;;;;21.47;9.40;;;5.70;99.90;;;;;;5041644;28;20039;-84
2022/01/17 07:52:34;;;;;;;16.77;8.43;;;5.70;99.90;;;;;;5041787;28;20021;-85
2022/01/17 07:54:59;;;;;;;17.13;8.27;;;5.70;99.90;;;;;;5058017;28;20103;-83
2022/01/17 07:57:25;;;;;;;21.53;10.67;;;5.60;99.90;;;;;;5044453;28;20033;-85
2022/01/17 07:59:51;;;;;;;20.43;9.10;;;5.60;99.90;;;;;;5043569;28;20033;-85
2022/01/17 08:02:17;;;;;;;21.60;10.40;;;5.60;99.90;;;;;;5041617;28;20029;-82
2022/01/17 08:04:43;;;;;;;24.23;10.77;;;5.60;99.90;;;;;;5075388;28;20029;-83
2022/01/17 08:07:09;;;;;;;24.83;10.67;;;5.60;99.90;;;;;;5074071;28;20040;-84
2022/01/17 08:09:35;;;;;;;18.70;8.23;;;5.60;99.90;;;;;;5036719;28;20061;-85
2022/01/17 08:12:06;;;;;;;22.80;10.33;;;5.60;99.90;;;;;;5036264;28;20030;-84
2022/01/17 08:14:31;;;;;;;23.40;10.77;;;5.60;99.90;;;;;;5057622;28;20021;-83
2022/01/17 08:16:57;;;;;;;23.10;9.00;;;5.70;99.90;;;;;;5049137;28;20022;-83
2022/01/17 08:19:25;;;;;;;22.57;10.27;;;5.70;99.90;;;;;;5041303;28;20026;-83
2022/01/17 08:21:54;;;;;;;21.70;10.30;;;5.70;99.90;;;;;;5041122;28;20033;-84
2022/01/17 08:24:21;;;;;;;23.30;10.60;;;5.80;99.90;;;;;;5039347;28;20026;-83
2022/01/17 08:26:47;;;;;;;17.43;7.70;;;5.90;99.90;;;;;;5044178;28;20028;-85
2022/01/17 08:29:13;;;;;;;23.20;9.80;;;5.90;99.90;;;;;;5055989;28;20033;-85
2022/01/17 08:31:42;;;;;;;14.97;7.57;;;6.00;99.90;;;;;;5041031;28;20028;-82
2022/01/17 08:34:10;;;;;;;16.93;8.57;;;6.00;99.90;;;;;;5040469;28;20483;-85
2022/01/17 08:36:36;;;;;;;14.83;7.13;;;6.00;99.90;;;;;;5039229;28;20037;-83
2022/01/17 08:39:01;;;;;;;19.30;8.40;;;6.10;99.90;;;;;;5039572;28;20029;-84
2022/01/17 08:41:27;;;;;;;16.37;7.27;;;6.10;99.90;;;;;;5042036;28;20030;-81
2022/01/17 08:43:53;;;;;;;19.23;7.87;;;6.10;99.90;;;;;;5043230;28;20050;-82
2022/01/17 08:46:19;;;;;;;16.70;8.50;;;6.10;99.90;;;;;;5042721;28;20481;-84
2022/01/17 08:48:45;;;;;;;20.67;9.50;;;6.10;99.90;;;;;;5039623;28;20036;-82
2022/01/17 08:51:11;;;;;;;16.10;7.53;;;6.00;99.90;;;;;;5040229;28;20064;-85
2022/01/17 08:53:37;;;;;;;19.50;8.07;;;6.20;99.90;;;;;;5039570;28;20032;-84
2022/01/17 08:56:04;;;;;;;25.37;11.40;;;6.10;99.90;;;;;;5036703;28;20102;-85
2022/01/17 08:58:30;;;;;;;27.20;11.63;;;6.10;99.90;;;;;;5050324;28;20109;-84
2022/01/17 09:00:59;;;;;;;20.07;10.50;;;6.00;99.90;;;;;;5047312;28;20074;-84
2022/01/17 09:03:25;;;;;;;22.10;10.10;;;6.00;99.90;;;;;;5043655;28;20041;-84
2022/01/17 09:05:52;;;;;;;30.87;12.20;;;5.90;99.90;;;;;;5038613;28;20038;-84
2022/01/17 09:08:18;;;;;;;26.17;11.53;;;5.90;99.90;;;;;;5040867;28;20753;-85
2022/01/17 09:10:48;;;;;;;23.63;11.50;;;5.80;99.90;;;;;;5037000;28;20029;-85
2022/01/17 09:13:14;;;;;;;31.73;13.07;;;5.80;99.90;;;;;;5037258;28;20021;-84
2022/01/17 09:15:40;;;;;;;27.20;11.37;;;5.80;99.90;;;;;;5070694;28;20366;-85
2022/01/17 09:18:06;;;;;;;34.03;12.33;;;5.80;99.90;;;;;;5038077;28;20060;-84
2022/01/17 09:20:34;;;;;;;28.60;13.63;;;5.90;99.90;;;;;;5039185;28;20029;-84
2022/01/17 09:23:01;;;;;;;30.13;13.50;;;5.80;99.90;;;;;;5069839;28;20029;-84
2022/01/17 09:25:27;;;;;;;35.80;14.63;;;5.80;99.90;;;;;;5037086;28;20029;-84
2022/01/17 09:27:53;;;;;;;26.33;13.93;;;5.90;99.90;;;;;;5039348;28;20048;-83
2022/01/17 09:30:19;;;;;;;28.77;13.90;;;5.90;99.90;;;;;;5037491;28;20162;-85
2022/01/17 09:32:49;;;;;;;28.27;13.13;;;5.90;99.90;;;;;;5040351;28;20076;-84
2022/01/17 09:35:15;;;;;;;31.53;14.17;;;5.80;99.90;;;;;;5040622;28;20030;-85
2022/01/17 09:37:42;;;;;;;36.47;14.10;;;5.90;99.90;;;;;;5073426;28;20044;-85
2022/01/17 09:40:09;;;;;;;28.87;13.13;;;5.90;99.90;;;;;;5041256;28;20115;-83
2022/01/17 09:42:37;;;;;;;24.57;14.17;;;6.00;99.90;;;;;;5041781;28;20113;-83
2022/01/17 09:45:09;;;;;;;33.70;13.97;;;6.20;99.90;;;;;;5055645;28;20053;-84
2022/01/17 09:47:36;;;;;;;24.38;11.63;;;6.20;99.90;;;;;;5071573;28;20030;-84
2022/01/17 09:50:08;;;;;;;26.50;13.37;;;6.30;99.90;;;;;;5076470;28;20083;-82
2022/01/17 09:52:35;;;;;;;27.43;12.73;;;6.40;99.90;;;;;;5074394;28;20417;-85
2022/01/17 09:55:10;;;;;;;24.13;12.43;;;6.50;99.90;;;;;;5039565;28;20288;-85
2022/01/17 09:57:44;;;;;;;24.90;12.17;;;6.50;99.90;;;;;;5045038;28;20022;-84
2022/01/17 10:00:13;;;;;;;26.77;11.90;;;6.50;99.90;;;;;;5073127;28;20033;-82
2022/01/17 10:02:40;;;;;;;22.27;11.37;;;6.50;99.90;;;;;;5035163;28;20091;-84
2022/01/17 10:05:08;;;;;;;24.57;11.77;;;6.50;99.90;;;;;;5034824;28;20038;-84
2022/01/17 10:07:53;;;;;;;24.97;12.00;;;6.50;99.90;;;;;;5045895;28;20542;-84
2022/01/17 10:10:44;;;;;;;22.20;11.27;;;6.50;99.90;;;;;;5050999;28;20026;-85
2022/01/17 10:13:23;;;;;;;27.80;12.63;;;6.50;99.90;;;;;;5068656;28;20063;-82
2022/01/17 10:16:07;;;;;;;23.57;12.20;;;6.50;99.90;;;;;;5053399;28;20021;-84
2022/01/17 10:18:39;;;;;;;21.63;11.40;;;6.50;99.90;;;;;;5071087;28;20025;-83
2022/01/17 10:21:18;;;;;;;28.47;12.50;;;6.50;99.90;;;;;;5044380;28;20045;-84
2022/01/17 10:26:55;;;;;;;30.50;14.33;;;6.50;99.90;;;;;;5037587;28;20033;-83
2022/01/17 10:37:15;;;;;;;26.93;13.73;;;6.50;99.90;;;;;;5037649;28;20052;-84
2022/01/17 10:39:58;;;;;;;24.00;11.73;;;6.40;99.90;;;;;;5071790;28;20056;-82
2022/01/17 10:42:26;;;;;;;28.52;12.13;;;6.60;99.90;;;;;;5044882;28;20034;-85
2022/01/17 10:44:52;;;;;;;28.53;13.53;;;6.60;99.90;;;;;;5072444;28;20159;-85
2022/01/17 10:47:20;;;;;;;26.97;12.73;;;6.70;99.90;;;;;;5034748;28;20032;-85
2022/01/17 10:49:58;;;;;;;24.47;11.27;;;6.80;99.90;;;;;;5034617;28;20033;-84
2022/01/17 10:52:36;;;;;;;22.27;13.23;;;6.80;99.90;;;;;;5034041;28;20022;-82
2022/01/17 10:55:10;;;;;;;24.70;11.73;;;6.90;99.90;;;;;;5039817;28;20052;-85
2022/01/17 10:57:39;;;;;;;21.10;11.63;;;6.90;99.90;;;;;;5044140;28;20018;-85
2022/01/17 11:00:20;;;;;;;21.07;12.80;;;6.90;99.90;;;;;;5039035;28;20026;-84
2022/01/17 11:02:52;;;;;;;22.17;10.97;;;6.90;99.90;;;;;;5038563;28;20067;-84
2022/01/17 11:05:19;;;;;;;22.33;9.97;;;7.00;99.90;;;;;;5038074;28;20045;-84
2022/01/17 11:07:47;;;;;;;17.47;10.00;;;7.00;99.90;;;;;;5039085;28;20111;-83
2022/01/17 11:10:22;;;;;;;17.93;10.67;;;7.00;99.90;;;;;;5040806;28;20035;-84
2022/01/17 11:12:51;;;;;;;21.17;11.40;;;6.90;99.90;;;;;;5040617;28;20050;-83
2022/01/17 11:15:18;;;;;;;22.17;10.50;;;6.90;99.90;;;;;;5056233;28;20120;-84
2022/01/17 11:17:50;;;;;;;22.23;11.50;;;6.90;99.90;;;;;;5045232;28;20025;-84
2022/01/17 11:20:17;;;;;;;30.60;11.18;;;6.80;99.90;;;;;;5036824;28;20073;-81
2022/01/17 11:22:46;;;;;;;20.87;12.43;;;6.80;99.90;;;;;;5040231;28;20025;-85
2022/01/17 11:25:16;;;;;;;26.93;11.50;;;6.80;99.90;;;;;;5046684;28;20030;-84
2022/01/17 11:27:43;;;;;;;26.60;12.60;;;6.70;99.90;;;;;;5039563;28;20186;-83
2022/01/17 11:30:09;;;;;;;42.20;15.57;;;6.70;99.90;;;;;;5073346;28;20029;-85
2022/01/17 11:32:36;;;;;;;23.93;12.57;;;6.70;99.90;;;;;;5037322;28;20108;-84
2022/01/17 11:35:06;;;;;;;24.90;13.00;;;6.70;99.90;;;;;;5041082;28;20029;-83
2022/01/17 11:37:42;;;;;;;26.30;14.17;;;6.60;99.90;;;;;;5043330;28;20031;-84
2022/01/17 11:40:09;;;;;;;24.57;12.17;;;6.70;99.90;;;;;;5040086;28;20025;-81
2022/01/17 11:42:42;;;;;;;27.87;12.57;;;6.60;99.90;;;;;;5041877;28;20040;-83
2022/01/17 11:45:23;;;;;;;20.00;11.27;;;6.60;99.90;;;;;;5039305;28;20480;-83
2022/01/17 11:47:57;;;;;;;22.93;12.10;;;6.60;99.90;;;;;;5049133;28;20053;-84
2022/01/17 11:50:33;;;;;;;24.70;12.10;;;6.60;99.90;;;;;;5041621;28;20087;-83
2022/01/17 11:53:11;;;;;;;32.73;14.80;;;6.60;99.90;;;;;;5047962;28;20022;-80
2022/01/17 11:58:37;;;;;;;27.13;13.80;;;6.50;99.90;;;;;;5041089;28;20036;-83
2022/01/17 12:01:02;;;;;;;25.70;14.37;;;6.50;99.90;;;;;;5046591;28;20450;-81
2022/01/17 12:03:47;;;;;;;26.07;14.53;;;6.70;99.90;;;;;;5055187;28;20049;-83
2022/01/17 12:06:21;;;;;;;35.73;14.83;;;;;;;;;;5042476;28;20091;-85
2022/01/17 12:08:48;;;;;;;33.03;13.67;;;;;;;;;;5048758;28;20079;-84
2022/01/17 12:11:41;;;;;;;30.80;15.03;;;;;;;;;;5046201;28;20061;-84
2022/01/17 12:14:09;;;;;;;;;;;;;;;;;;5052228;28;20037;-85
2022/01/17 12:16:37;;;;;;;34.80;15.33;;;;;;;;;;5069349;28;19916;-83
2022/01/17 12:19:03;;;;;;;25.27;13.13;;;;;;;;;;5055410;28;20030;-83
2022/01/17 12:21:30;;;;;;;29.90;13.23;;;;;;;;;;5045953;28;20048;-83
2022/01/17 12:24:18;;;;;;;27.70;12.17;;;;;;;;;;5051600;28;20025;-85
2022/01/17 12:26:57;;;;;;;26.77;12.77;;;;;;;;;;5047328;28;20182;-85
2022/01/17 12:29:42;;;;;;;34.50;14.63;;;;;;;;;;5045669;28;20045;-84
2022/01/17 12:32:40;;;;;;;36.23;13.53;;;;;;;;;;5047340;28;20059;-84
2022/01/17 12:35:08;;;;;;;24.80;12.80;;;;;;;;;;5047525;28;20026;-82
2022/01/17 12:37:37;;;;;;;27.23;13.40;;;;;;;;;;5037617;28;20048;-84
2022/01/17 12:40:12;;;;;;;30.93;14.23;;;;;;;;;;5056145;28;20538;-83
2022/01/17 12:43:08;;;;;;;27.33;13.77;;;;;;;;;;5044493;28;20029;-85
2022/01/17 12:45:36;;;;;;;35.43;14.10;;;;;;;;;;5036327;28;20099;-85
2022/01/17 12:48:04;;;;;;;28.20;13.87;;;;;;;;;;5046900;28;20053;-83
2022/01/17 12:50:32;;;;;;;25.40;13.20;;;;;;;;;;5045517;28;20034;-85
2022/01/17 12:52:59;;;;;;;24.70;13.80;;;;;;;;;;5040222;28;20041;-84
2022/01/17 12:55:27;;;;;;;26.43;13.00;;;;;;;;;;5045916;28;20030;-83
2022/01/17 12:57:53;;;;;;;28.97;13.67;;;;;;;;;;5046487;28;20034;-84
2022/01/17 13:00:21;;;;;;;26.00;12.43;;;;;;;;;;5046249;28;20064;-84
2022/01/17 13:02:48;;;;;;;23.47;11.07;;;;;;;;;;5048327;28;20044;-84
2022/01/17 13:05:21;;;;;;;25.80;13.17;;;;;;;;;;5040710;28;20114;-84
2022/01/17 13:07:47;;;;;;;;;;;;;;;;;;5048123;28;20028;-83
2022/01/17 13:10:15;;;;;;;29.33;13.20;;;;;;;;;;5072558;28;19921;-83
2022/01/17 13:12:42;;;;;;;23.47;12.43;;;;;;;;;;5046046;28;20095;-85
2022/01/17 13:15:11;;;;;;;27.73;11.90;;;;;;;;;;5047690;28;20048;-83
2022/01/17 13:17:39;;;;;;;26.50;13.27;;;;;;;;;;5045922;28;20044;-84
2022/01/17 13:20:06;;;;;;;40.63;14.40;;;;;;;;;;5071549;28;20034;-84
2022/01/17 13:22:38;;;;;;;26.00;12.97;;;;;;;;;;5046627;28;20037;-85
2022/01/17 13:25:04;;;;;;;;;;;;;;;;;;5059344;28;20757;-85